Time;durP1;ratioP1;P1;durP2;ratioP2;P2;SDS_P1;SDS_P2;PMS_P1;PMS_P2;Temp;Humidity;BMP_temperature;BMP_pressure;BME280_temperature;BME280_humidity;BME280_pressure;Samples;Min_cycle;Max_cycle;Signal;HPM_P1;HPM_P2
2021/08/06 00:01:15;;;;;;;;;2.00;1.00;;;;;20.32;67.55;100255.66;5001193;28;46351;-88
2021/08/06 00:03:40;;;;;;;;;2.00;2.00;;;;;20.34;67.03;100258.22;5002345;28;45248;-92
2021/08/06 00:06:06;;;;;;;;;2.00;2.00;;;;;20.34;67.36;100255.53;5001909;28;45253;-86
2021/08/06 00:08:32;;;;;;;;;3.00;3.00;;;;;20.32;67.21;100244.97;4996610;28;47044;-87
2021/08/06 00:10:57;;;;;;;;;3.00;2.00;;;;;20.32;66.95;100250.31;5000514;28;45310;-89
2021/08/06 00:13:23;;;;;;;;;3.75;3.00;;;;;20.27;67.03;100255.22;5000700;28;45396;-89
2021/08/06 00:15:48;;;;;;;;;3.00;2.00;;;;;20.26;67.04;100257.97;5001391;28;45273;-90
2021/08/06 00:18:14;;;;;;;;;2.00;2.00;;;;;20.23;67.04;100253.75;5000281;28;45558;-90
2021/08/06 00:20:39;;;;;;;;;3.00;3.00;;;;;20.23;66.79;100257.25;4983170;28;47909;-91
2021/08/06 00:23:05;;;;;;;;;2.00;1.25;;;;;20.23;67.06;100261.75;4986949;28;45839;-91
2021/08/06 00:25:31;;;;;;;;;3.00;3.00;;;;;20.19;67.01;100255.84;4983646;28;45295;-90
2021/08/06 00:27:56;;;;;;;;;1.50;1.50;;;;;20.21;66.85;100256.56;5000598;28;45330;-90
2021/08/06 00:30:22;;;;;;;;;2.00;2.00;;;;;20.20;66.86;100262.84;5000504;28;45680;-91
2021/08/06 00:32:47;;;;;;;;;3.50;2.25;;;;;20.20;66.94;100246.84;4982742;28;45341;-90
2021/08/06 00:35:13;;;;;;;;;1.00;0.00;;;;;20.21;66.72;100258.38;4999957;28;45337;-92
2021/08/06 00:37:38;;;;;;;;;4.00;2.00;;;;;20.21;66.79;100253.88;4982821;28;46383;-90
2021/08/06 00:40:04;;;;;;;;;2.50;2.00;;;;;20.23;66.83;100257.25;5000616;28;46423;-88
2021/08/06 00:42:30;;;;;;;;;2.50;2.00;;;;;20.21;66.90;100259.22;5000535;28;45365;-88
2021/08/06 00:44:55;;;;;;;;;2.25;2.00;;;;;20.21;66.83;100259.22;4979150;28;45500;-89
2021/08/06 00:47:21;;;;;;;;;2.00;2.00;;;;;20.21;66.80;100258.38;4996443;28;45362;-89
2021/08/06 00:49:46;;;;;;;;;2.25;2.25;;;;;20.19;66.78;100253.16;5000565;28;46531;-89
2021/08/06 00:52:14;;;;;;;;;1.25;1.25;;;;;20.21;67.11;100259.22;4998604;28;45448;-88
2021/08/06 00:54:39;;;;;;;;;3.25;2.00;;;;;20.18;66.75;100259.47;4996401;28;45333;-88
2021/08/06 00:57:04;;;;;;;;;3.25;3.25;;;;;20.14;67.10;100258.03;5000097;28;45476;-88
2021/08/06 00:59:30;;;;;;;;;2.50;1.00;;;;;20.11;67.09;100250.25;4986181;28;45797;-88
2021/08/06 01:02:07;;;;;;;;;2.00;1.00;;;;;20.07;67.25;100264.81;4979426;28;45269;-87
2021/08/06 01:05:03;;;;;;;;;0.75;0.00;;;;;20.04;67.12;100255.22;4977366;28;45512;-87
2021/08/06 01:07:48;;;;;;;;;1.00;1.00;;;;;20.05;67.05;100272.09;4982469;28;46099;-86
2021/08/06 01:10:13;;;;;;;;;2.25;2.25;;;;;20.05;66.67;100259.56;5000073;28;45404;-86
2021/08/06 01:12:54;;;;;;;;;1.75;1.75;;;;;20.08;66.88;100253.16;5000125;28;45306;-86
2021/08/06 01:15:20;;;;;;;;;1.00;1.00;;;;;20.10;66.72;100257.38;4977629;28;45499;-85
2021/08/06 01:17:46;;;;;;;;;3.75;2.00;;;;;20.12;66.62;100263.47;5000449;28;45487;-86
2021/08/06 01:20:22;;;;;;;;;3.25;2.25;;;;;20.15;66.76;100269.56;4969278;28;48477;-86
2021/08/06 01:23:17;;;;;;;;;5.25;2.00;;;;;20.16;66.69;100260.56;4999929;28;45281;-87
2021/08/06 01:25:43;;;;;;;;;2.50;2.00;;;;;20.15;66.83;100273.03;4999501;28;45494;-87
2021/08/06 01:28:09;;;;;;;;;1.25;1.25;;;;;20.15;66.79;100262.38;4981835;28;46398;-87
2021/08/06 01:30:34;;;;;;;;;2.75;2.75;;;;;20.16;66.84;100264.06;4999980;28;45486;-87
2021/08/06 01:33:00;;;;;;;;;1.00;1.00;;;;;20.17;66.83;100270.28;4980401;28;45610;-88
2021/08/06 01:35:25;;;;;;;;;3.75;3.00;;;;;20.18;66.35;100264.78;4999677;28;45404;-86
2021/08/06 01:37:50;;;;;;;;;1.75;1.00;;;;;20.20;66.53;100265.50;5000159;28;45722;-86
2021/08/06 01:40:16;;;;;;;;;2.25;2.00;;;;;20.18;66.92;100259.47;4999916;28;46665;-87
2021/08/06 01:43:00;;;;;;;;;3.00;2.00;;;;;20.19;66.36;100263.84;4998980;28;45472;-86
2021/08/06 01:45:32;;;;;;;;;3.50;2.50;;;;;20.17;66.60;100271.13;4999468;28;45246;-81
2021/08/06 01:47:58;;;;;;;;;2.00;2.00;;;;;20.15;66.63;100259.69;4999445;28;45320;-87
2021/08/06 01:50:31;;;;;;;;;3.00;2.00;;;;;20.12;66.60;100257.31;4999452;28;46355;-85
2021/08/06 01:53:00;;;;;;;;;2.00;2.00;;;;;20.15;66.54;100258.88;4981519;28;45932;-85
2021/08/06 01:55:38;;;;;;;;;2.25;2.25;;;;;20.12;66.42;100275.97;5000057;28;45229;-85
2021/08/06 01:58:04;;;;;;;;;1.00;1.00;;;;;20.11;66.57;100263.59;4999261;28;45376;-84
2021/08/06 02:00:31;;;;;;;;;2.00;2.00;;;;;20.11;66.73;100258.28;4999003;28;46560;-84
2021/08/06 02:02:57;;;;;;;;;2.00;2.00;;;;;20.09;66.46;100262.84;4999128;28;45321;-84
2021/08/06 02:05:22;;;;;;;;;2.50;2.50;;;;;20.07;66.55;100255.00;5000077;28;45471;-83
2021/08/06 02:07:48;;;;;;;;;2.00;1.00;;;;;20.11;66.16;100263.59;4999619;28;45560;-88
2021/08/06 02:10:14;;;;;;;;;3.00;3.00;;;;;20.11;66.54;100258.28;4999288;28;45643;-88
2021/08/06 02:12:40;;;;;;;;;1.25;1.25;;;;;20.09;66.40;100268.19;4998898;28;45639;-88
2021/08/06 02:15:07;;;;;;;;;2.00;2.00;;;;;20.06;66.40;100265.75;4981397;28;45249;-88
2021/08/06 02:17:35;;;;;;;;;6.25;3.00;;;;;20.08;66.37;100264.66;5000135;28;45486;-94
2021/08/06 02:20:03;;;;;;;;;2.00;2.00;;;;;20.03;66.24;100266.84;5000432;28;46473;-94
2021/08/06 02:22:29;;;;;;;;;2.25;2.00;;;;;20.00;66.58;100267.13;5003530;28;45293;-96
2021/08/06 02:24:56;;;;;;;;;5.00;2.00;;;;;19.97;66.42;100268.22;5003714;28;45206;-95
2021/08/06 02:27:22;;;;;;;;;3.25;2.00;;;;;19.96;66.07;100273.66;5003710;28;45496;-94
2021/08/06 02:29:56;;;;;;;;;3.50;1.50;;;;;19.90;66.26;100275.84;4987113;28;46311;-95
2021/08/06 02:32:22;;;;;;;;;2.25;2.00;;;;;19.89;66.39;100281.31;4988164;28;45250;-96
2021/08/06 02:34:50;;;;;;;;;2.00;0.00;;;;;19.85;66.46;100275.38;5018273;28;45214;-96
2021/08/06 02:37:15;;;;;;;;;2.50;2.00;;;;;19.93;66.48;100288.09;5053814;23;45491;-88
2021/08/06 02:39:40;;;;;;;;;2.25;2.25;;;;;19.93;66.58;100296.09;4982768;28;46249;-88
2021/08/06 02:42:06;;;;;;;;;3.00;1.00;;;;;19.92;66.27;100275.75;4982808;28;45326;-88
2021/08/06 02:44:38;;;;;;;;;4.00;2.00;;;;;19.93;66.27;100290.75;4982799;28;45344;-86
2021/08/06 02:47:08;;;;;;;;;3.00;3.00;;;;;19.91;65.95;100284.69;4982317;28;45499;-93
2021/08/06 02:49:34;;;;;;;;;2.00;2.00;;;;;19.83;66.14;100289.81;4969494;28;47112;-94
2021/08/06 02:52:02;;;;;;;;;2.75;2.00;;;;;19.79;66.07;100298.06;4965938;28;45232;-93
2021/08/06 02:54:27;;;;;;;;;3.00;2.00;;;;;19.76;66.46;100290.28;4971126;28;45256;-90
2021/08/06 02:56:53;;;;;;;;;2.25;2.25;;;;;19.75;66.37;100288.63;4982454;28;45406;-89
2021/08/06 02:59:18;;;;;;;;;2.00;2.00;;;;;19.76;66.14;100284.09;4982176;28;45216;-89
2021/08/06 03:01:43;;;;;;;;;0.25;0.25;;;;;19.74;65.97;100289.56;4982898;28;45377;-93
2021/08/06 03:04:09;;;;;;;;;1.00;1.00;;;;;19.71;65.78;100297.81;4961447;28;45286;-88
2021/08/06 03:06:34;;;;;;;;;5.00;1.00;;;;;19.69;66.42;100297.09;4982290;28;45468;-87
2021/08/06 03:09:01;;;;;;;;;2.00;2.00;;;;;19.73;66.08;100295.88;4982279;28;45344;-85
2021/08/06 03:11:26;;;;;;;;;1.00;1.00;;;;;19.78;65.97;100300.81;4982417;28;45526;-91
2021/08/06 03:13:52;;;;;;;;;1.75;1.00;;;;;19.81;65.85;100302.41;4965239;28;45349;-93
2021/08/06 03:16:17;;;;;;;;;2.00;2.00;;;;;19.82;65.87;100302.28;4982784;28;45742;-93
2021/08/06 03:18:42;;;;;;;;;3.00;2.25;;;;;19.83;65.47;100303.97;4971288;28;45285;-93
2021/08/06 03:21:08;;;;;;;;;1.50;1.50;;;;;19.82;65.23;100314.78;4964821;28;45326;-95
2021/08/06 03:23:33;;;;;;;;;1.25;1.25;;;;;19.79;65.38;100307.88;4983262;28;45311;-85
2021/08/06 03:25:59;;;;;;;;;1.25;1.25;;;;;19.78;65.36;100312.34;4981965;28;45607;-86
2021/08/06 03:28:24;;;;;;;;;1.50;1.00;;;;;19.76;65.35;100308.97;4981587;28;46551;-87
2021/08/06 03:30:50;;;;;;;;;2.25;2.00;;;;;19.75;65.42;100306.44;4982667;28;45247;-94
2021/08/06 03:33:15;;;;;;;;;1.00;1.00;;;;;19.77;65.19;100313.34;4955114;28;46800;-95
2021/08/06 03:35:41;;;;;;;;;1.75;1.50;;;;;19.79;65.34;100318.53;4965368;28;47483;-96
2021/08/06 03:38:17;;;;;;;;;1.00;1.00;;;;;19.75;65.42;100307.28;4983301;28;46684;-92
2021/08/06 03:40:43;;;;;;;;;1.00;0.00;;;;;19.82;64.87;100312.09;4982657;28;45228;-92
2021/08/06 03:43:09;;;;;;;;;1.75;0.75;;;;;19.82;65.09;100322.78;4963534;28;45484;-93
2021/08/06 03:45:35;;;;;;;;;3.75;2.00;;;;;19.81;64.55;100316.59;4965185;28;47220;-94
2021/08/06 03:48:00;;;;;;;;;2.00;1.00;;;;;19.77;64.72;100318.66;4982760;28;45347;-92
2021/08/06 03:50:25;;;;;;;;;3.00;3.00;;;;;19.79;64.79;100314.06;4982685;28;45295;-95
2021/08/06 03:52:51;;;;;;;;;2.00;2.00;;;;;19.79;64.95;100307.88;4967956;28;45419;-93
2021/08/06 03:55:16;;;;;;;;;2.00;2.00;;;;;19.78;64.89;100316.81;4971902;28;46140;-92
2021/08/06 03:57:49;;;;;;;;;1.00;1.00;;;;;19.79;64.78;100323.88;4961775;28;47146;-91
2021/08/06 04:00:15;;;;;;;;;1.00;1.00;;;;;19.75;65.05;100311.75;4969439;28;45461;-93
2021/08/06 04:02:42;;;;;;;;;1.25;1.25;;;;;19.75;64.89;100338.41;4964115;28;45415;-92
2021/08/06 04:05:08;;;;;;;;;3.00;1.00;;;;;19.77;64.81;100342.66;4964937;28;46002;-94
2021/08/06 04:07:35;;;;;;;;;2.00;2.00;;;;;19.73;64.36;100345.69;4967420;28;48535;-96
2021/08/06 04:10:03;;;;;;;;;1.25;1.25;;;;;19.74;64.44;100337.56;4969511;28;46026;-93
2021/08/06 04:12:28;;;;;;;;;1.00;1.00;;;;;19.67;64.66;100339.88;4982177;28;45416;-93
2021/08/06 04:14:54;;;;;;;;;1.00;1.00;;;;;19.67;64.28;100342.53;4964283;28;46298;-95
2021/08/06 04:17:19;;;;;;;;;1.25;1.00;;;;;19.71;64.52;100345.78;4963098;28;48021;-96
2021/08/06 04:19:44;;;;;;;;;2.00;1.00;;;;;19.69;64.29;100345.06;4976293;28;45329;-96
2021/08/06 04:22:10;;;;;;;;;1.25;1.25;;;;;19.72;64.14;100349.31;4965896;28;45768;-93
2021/08/06 04:24:35;;;;;;;;;2.00;2.00;;;;;19.63;64.49;100354.38;4964315;28;46026;-93
2021/08/06 04:27:00;;;;;;;;;1.00;1.00;;;;;19.67;64.37;100355.00;4964197;28;48090;-94
2021/08/06 04:29:25;;;;;;;;;0.75;0.75;;;;;19.64;64.38;100355.25;4964357;28;45360;-94
2021/08/06 04:31:51;;;;;;;;;2.00;1.00;;;;;19.63;64.12;100350.91;4964070;28;45432;-89
2021/08/06 04:34:16;;;;;;;;;3.50;1.50;;;;;19.67;64.36;100352.34;4981017;28;45331;-89
2021/08/06 04:36:41;;;;;;;;;3.00;2.25;;;;;19.64;63.85;100352.56;4980952;28;45403;-89
2021/08/06 04:39:07;;;;;;;;;2.75;1.50;;;;;19.60;63.47;100367.13;4980036;28;45507;-89
2021/08/06 04:41:32;;;;;;;;;1.50;1.50;;;;;19.58;64.12;100377.06;4981252;28;45241;-83
2021/08/06 04:43:58;;;;;;;;;1.00;1.00;;;;;19.55;63.99;100371.00;4980571;28;45348;-83
2021/08/06 04:46:23;;;;;;;;;2.00;0.75;;;;;19.54;63.98;100374.63;4949832;28;47075;-83
2021/08/06 04:48:48;;;;;;;;;1.00;1.00;;;;;19.54;63.93;100369.28;4981177;28;45305;-83
2021/08/06 04:51:14;;;;;;;;;0.50;0.25;;;;;19.57;63.80;100373.53;4981029;28;45400;-90
2021/08/06 04:53:39;;;;;;;;;3.00;1.00;;;;;19.56;63.73;100370.00;4967109;28;46361;-86
2021/08/06 04:56:06;;;;;;;;;1.00;1.00;;;;;19.56;62.63;100383.34;4980001;28;45420;-85
2021/08/06 04:58:31;;;;;;;;;2.75;1.00;;;;;19.49;63.29;100371.47;4980023;28;45289;-83
2021/08/06 05:00:57;;;;;;;;;1.00;1.00;;;;;19.46;63.79;100379.69;4980720;28;45213;-84
2021/08/06 05:03:22;;;;;;;;;1.00;1.00;;;;;19.48;63.89;100380.44;4980996;28;45250;-85
2021/08/06 05:05:49;;;;;;;;;0.50;0.50;;;;;19.54;63.92;100379.94;4980412;28;46197;-82
2021/08/06 05:08:14;;;;;;;;;1.00;1.00;;;;;19.54;64.05;100379.94;4962306;28;45863;-81
2021/08/06 05:10:40;;;;;;;;;2.25;1.00;;;;;19.62;63.59;100386.50;4962865;28;45314;-82
2021/08/06 05:13:05;;;;;;;;;0.50;0.50;;;;;19.62;63.75;100382.03;4960459;28;46349;-82
2021/08/06 05:15:31;;;;;;;;;0.25;0.25;;;;;19.65;63.98;100388.94;4979246;28;46394;-82
2021/08/06 05:17:56;;;;;;;;;1.00;1.00;;;;;19.63;64.01;100393.53;4979334;28;45243;-82
2021/08/06 05:20:21;;;;;;;;;1.00;1.00;;;;;19.61;64.03;100396.31;4979323;28;45377;-78
2021/08/06 05:22:47;;;;;;;;;1.00;1.00;;;;;19.62;63.52;100394.50;4978849;28;46507;-85
2021/08/06 05:25:12;;;;;;;;;3.00;1.50;;;;;19.62;64.00;100391.84;4978469;28;45856;-84
2021/08/06 05:27:38;;;;;;;;;1.00;1.00;;;;;19.62;63.93;100392.69;4961320;28;45539;-85
2021/08/06 05:30:04;;;;;;;;;1.00;1.00;;;;;19.64;63.97;100392.56;4960940;28;45496;-84
2021/08/06 05:32:29;;;;;;;;;2.00;1.50;;;;;19.62;63.37;100389.16;4975732;28;45544;-85
2021/08/06 05:34:55;;;;;;;;;1.00;0.75;;;;;19.60;63.93;100389.28;4976539;28;46217;-85
2021/08/06 05:37:20;;;;;;;;;0.00;0.00;;;;;19.55;64.15;100392.31;4979690;28;45263;-85
2021/08/06 05:39:45;;;;;;;;;2.75;2.00;;;;;19.58;64.04;100385.91;4980195;28;45325;-84
2021/08/06 05:42:11;;;;;;;;;1.00;1.00;;;;;19.58;63.87;100395.72;4979954;28;45404;-85
2021/08/06 05:44:36;;;;;;;;;1.50;1.50;;;;;19.61;63.86;100390.97;4978801;28;46311;-84
2021/08/06 05:47:02;;;;;;;;;1.00;1.00;;;;;19.66;63.95;100387.97;4975649;28;45417;-81
2021/08/06 05:49:27;;;;;;;;;0.75;0.25;;;;;19.68;63.67;100386.88;4981139;28;45436;-81
2021/08/06 05:51:53;;;;;;;;;1.00;0.00;;;;;19.74;63.33;100393.56;4978546;28;45472;-87
2021/08/06 05:54:18;;;;;;;;;2.00;0.25;;;;;19.77;63.43;100390.66;4978323;28;46722;-86
2021/08/06 05:56:43;;;;;;;;;2.25;0.75;;;;;19.77;63.64;100381.81;4977543;28;45529;-87
2021/08/06 05:59:08;;;;;;;;;1.50;0.25;;;;;19.78;63.65;100384.34;4979935;28;45488;-83
2021/08/06 06:01:34;;;;;;;;;0.00;0.00;;;;;19.77;63.11;100390.66;4961626;28;47071;-86
2021/08/06 06:04:00;;;;;;;;;2.75;2.00;;;;;19.77;63.04;100406.66;4979726;28;45657;-86
2021/08/06 06:06:25;;;;;;;;;1.00;0.00;;;;;19.77;63.47;100403.97;4963946;28;45480;-86
2021/08/06 06:08:50;;;;;;;;;2.00;0.00;;;;;19.75;63.28;100399.75;4961705;28;45447;-82
2021/08/06 06:11:16;;;;;;;;;3.00;0.25;;;;;19.79;63.34;100409.19;4979368;28;45349;-91
2021/08/06 06:13:42;;;;;;;;;1.75;1.75;;;;;19.83;63.13;100415.16;4978496;28;46170;-84
2021/08/06 06:16:07;;;;;;;;;0.25;0.25;;;;;19.83;63.00;100413.31;4976545;28;45485;-85
2021/08/06 06:18:32;;;;;;;;;2.00;1.00;;;;;19.78;62.89;100408.34;4980209;28;45314;-85
2021/08/06 06:20:58;;;;;;;;;1.75;1.75;;;;;19.81;63.22;100412.56;4962150;28;46036;-85
2021/08/06 06:23:24;;;;;;;;;2.00;1.00;;;;;19.84;63.02;100406.16;4978936;28;45364;-85
2021/08/06 06:25:50;;;;;;;;;0.75;0.75;;;;;19.88;62.72;100412.94;4978603;28;45458;-85
2021/08/06 06:28:15;;;;;;;;;4.00;1.00;;;;;19.88;62.96;100415.59;4978890;28;45361;-85
2021/08/06 06:30:41;;;;;;;;;2.50;1.00;;;;;19.90;62.81;100409.19;4978051;28;45285;-85
2021/08/06 06:33:06;;;;;;;;;1.00;1.00;;;;;19.89;63.08;100410.16;4979527;28;45263;-85
2021/08/06 06:35:32;;;;;;;;;2.00;1.00;;;;;19.92;62.67;100408.22;4978547;28;45156;-85
2021/08/06 06:37:58;;;;;;;;;1.00;1.00;;;;;19.96;62.67;100415.00;4960487;28;45176;-86
2021/08/06 06:40:24;;;;;;;;;1.50;1.00;;;;;20.00;62.50;100411.16;4979319;28;45539;-86
2021/08/06 06:42:50;;;;;;;;;1.25;0.00;;;;;20.01;62.49;100410.16;4967659;28;47141;-85
2021/08/06 06:45:17;;;;;;;;;1.00;1.00;;;;;20.00;62.41;100401.31;4979655;28;45310;-86
2021/08/06 06:47:48;;;;;;;;;1.25;1.25;;;;;20.02;62.69;100407.41;4979180;28;45350;-89
2021/08/06 06:50:17;;;;;;;;;3.25;1.00;;;;;20.02;62.46;100420.75;4962011;28;45554;-86
2021/08/06 06:52:43;;;;;;;;;0.00;0.00;;;;;20.02;61.82;100420.75;4979149;28;45668;-86
2021/08/06 06:55:10;;;;;;;;;2.50;1.00;;;;;20.04;62.46;100430.41;4979332;28;45428;-86
2021/08/06 06:57:46;;;;;;;;;0.25;0.00;;;;;20.00;62.39;100444.00;4960981;28;45365;-85
2021/08/06 07:00:13;;;;;;;;;2.00;0.00;;;;;19.97;62.59;100456.72;4979295;28;45413;-86
2021/08/06 07:02:39;;;;;;;;;0.25;0.25;;;;;19.96;62.88;100442.53;4979458;28;45213;-86
2021/08/06 07:05:05;;;;;;;;;2.25;1.00;;;;;19.95;62.45;100440.81;4979070;28;45442;-86
2021/08/06 07:07:30;;;;;;;;;0.00;0.00;;;;;19.92;62.63;100442.91;4963660;28;45298;-85
2021/08/06 07:09:57;;;;;;;;;0.00;0.00;;;;;19.91;62.35;100434.03;4964303;28;47297;-86
2021/08/06 07:12:22;;;;;;;;;1.00;0.00;;;;;19.90;62.89;100449.19;4960861;28;47208;-85
2021/08/06 07:14:47;;;;;;;;;1.00;1.00;;;;;19.92;62.71;100441.09;4960888;28;46036;-85
2021/08/06 07:17:14;;;;;;;;;0.50;0.50;;;;;19.89;62.73;100436.84;4955279;28;45425;-86
2021/08/06 07:19:39;;;;;;;;;1.75;0.50;;;;;19.95;62.67;100438.16;4964423;28;46300;-86
2021/08/06 07:22:05;;;;;;;;;1.00;1.00;;;;;19.98;62.40;100432.59;4982338;28;45406;-86
2021/08/06 07:24:30;;;;;;;;;0.75;0.75;;;;;19.99;62.18;100436.13;4952835;28;45258;-86
2021/08/06 07:26:55;;;;;;;;;1.25;0.00;;;;;20.04;62.59;100438.41;4963975;28;45199;-85
2021/08/06 07:29:21;;;;;;;;;0.75;0.00;;;;;20.04;62.27;100438.41;4964545;28;45523;-86
2021/08/06 07:31:46;;;;;;;;;0.25;0.25;;;;;20.05;62.10;100446.28;4982073;28;45653;-86
2021/08/06 07:34:12;;;;;;;;;0.00;0.00;;;;;20.04;62.30;100449.09;4964912;28;45822;-86
2021/08/06 07:36:37;;;;;;;;;1.00;0.50;;;;;20.02;62.34;100447.41;4981280;28;45869;-85
2021/08/06 07:39:02;;;;;;;;;0.00;0.00;;;;;20.01;62.47;100451.03;4981979;28;45421;-86
2021/08/06 07:41:28;;;;;;;;;0.25;0.25;;;;;20.01;62.66;100448.38;4981506;28;45208;-85
2021/08/06 07:43:53;;;;;;;;;0.75;0.75;;;;;20.04;62.21;100454.44;4982037;28;45175;-84
2021/08/06 07:46:18;;;;;;;;;1.00;1.00;;;;;20.05;62.45;100459.63;4964669;28;45257;-86
2021/08/06 07:48:44;;;;;;;;;0.50;0.50;;;;;20.05;62.30;100456.97;4963649;28;46017;-85
2021/08/06 07:51:09;;;;;;;;;0.00;0.00;;;;;20.08;62.41;100474.53;4981929;28;45500;-85
2021/08/06 07:53:34;;;;;;;;;0.75;0.75;;;;;20.12;62.33;100474.22;4974458;28;45510;-85
2021/08/06 07:56:00;;;;;;;;;0.00;0.00;;;;;20.15;61.92;100464.31;4964583;28;45413;-85
2021/08/06 07:58:25;;;;;;;;;0.00;0.00;;;;;20.16;62.02;100464.16;4981168;28;45789;-86
2021/08/06 08:00:50;;;;;;;;;0.75;0.75;;;;;20.21;61.75;100478.00;4981296;28;45286;-86
2021/08/06 08:03:16;;;;;;;;;1.00;1.00;;;;;20.22;62.32;100474.34;4964346;28;45291;-86
2021/08/06 08:05:41;;;;;;;;;0.00;0.00;;;;;20.27;61.76;100483.81;4981915;28;45390;-86
2021/08/06 08:08:07;;;;;;;;;0.75;0.75;;;;;20.26;62.09;100474.13;4980988;28;45534;-85
2021/08/06 08:10:32;;;;;;;;;0.75;0.00;;;;;20.26;61.46;100488.31;4981157;28;45319;-86
2021/08/06 08:12:57;;;;;;;;;2.00;1.00;;;;;20.21;61.89;100491.34;4981235;28;45380;-85
2021/08/06 08:15:23;;;;;;;;;2.00;1.25;;;;;20.23;61.92;100499.22;4964278;28;45440;-86
2021/08/06 08:17:48;;;;;;;;;0.00;0.00;;;;;20.19;62.38;100479.94;4966680;28;46189;-85
2021/08/06 08:20:14;;;;;;;;;0.25;0.00;;;;;20.19;62.37;100495.97;4963190;28;47268;-85
2021/08/06 08:22:40;;;;;;;;;0.75;0.75;;;;;20.17;62.14;100502.38;4981284;28;45235;-86
2021/08/06 08:25:07;;;;;;;;;1.50;1.00;;;;;20.14;62.29;100490.13;4964201;28;45187;-85
2021/08/06 08:27:33;;;;;;;;;3.00;1.50;;;;;20.12;61.74;100490.22;4980998;28;46486;-85
2021/08/06 08:29:59;;;;;;;;;1.00;1.00;;;;;20.14;61.84;100490.13;4980835;28;46210;-85
2021/08/06 08:32:24;;;;;;;;;0.75;0.75;;;;;20.15;61.93;100488.31;4981551;28;45387;-85
2021/08/06 08:34:50;;;;;;;;;0.00;0.00;;;;;20.14;61.92;100492.78;4981533;28;45498;-86
2021/08/06 08:37:15;;;;;;;;;1.50;1.00;;;;;20.18;62.29;100488.91;4960518;28;47285;-85
2021/08/06 08:39:42;;;;;;;;;0.25;0.25;;;;;20.24;61.83;100484.91;4966466;28;47321;-85
2021/08/06 08:42:07;;;;;;;;;1.00;1.00;;;;;20.27;61.82;100489.16;4957327;28;45780;-85
2021/08/06 08:44:34;;;;;;;;;2.00;1.00;;;;;20.28;61.82;100491.69;4980976;28;45266;-85
2021/08/06 08:47:03;;;;;;;;;0.50;0.50;;;;;20.29;61.31;100490.75;4979668;28;46630;-85
2021/08/06 08:49:31;;;;;;;;;0.00;0.00;;;;;20.29;61.20;100500.56;4980953;28;46534;-85
2021/08/06 08:51:58;;;;;;;;;3.00;1.00;;;;;20.27;61.02;100491.84;4972012;28;45264;-85
2021/08/06 08:54:24;;;;;;;;;1.00;0.00;;;;;20.28;61.34;100493.50;4980472;28;45602;-85
2021/08/06 08:56:49;;;;;;;;;1.50;0.25;;;;;20.30;61.50;100502.25;4980745;28;45224;-86
2021/08/06 08:59:15;;;;;;;;;1.00;1.00;;;;;20.30;61.75;100495.09;4962939;28;47006;-86
2021/08/06 09:01:40;;;;;;;;;2.00;1.00;;;;;20.32;60.89;100495.00;4980723;28;45224;-85
2021/08/06 09:04:17;;;;;;;;;0.00;0.00;;;;;20.36;60.95;100501.78;4963122;28;45400;-85
2021/08/06 09:06:44;;;;;;;;;1.00;0.25;;;;;20.38;61.15;100491.81;4962555;28;47340;-86
2021/08/06 09:09:15;;;;;;;;;0.25;0.25;;;;;20.42;60.98;100508.47;4980733;28;45819;-85
2021/08/06 09:11:41;;;;;;;;;0.00;0.00;;;;;20.46;61.16;100513.44;4979854;28;45518;-85
2021/08/06 09:14:22;;;;;;;;;1.00;1.00;;;;;20.48;61.25;100510.63;4980812;28;45425;-85
2021/08/06 09:16:53;;;;;;;;;0.00;0.00;;;;;20.50;60.70;100513.16;4979274;28;45471;-85
2021/08/06 09:19:18;;;;;;;;;2.75;1.00;;;;;20.49;61.22;100516.81;4980502;28;46697;-85
2021/08/06 09:21:44;;;;;;;;;2.00;1.00;;;;;20.52;61.41;100527.28;4980390;28;45563;-84
2021/08/06 09:24:10;;;;;;;;;0.75;0.00;;;;;20.50;60.84;100523.84;4980716;28;45586;-85
2021/08/06 09:26:40;;;;;;;;;0.25;0.25;;;;;20.47;61.10;100530.28;4979586;28;45476;-85
2021/08/06 09:29:21;;;;;;;;;1.00;1.00;;;;;20.43;61.09;100524.34;4974382;28;45340;-85
2021/08/06 09:31:56;;;;;;;;;0.75;0.75;;;;;20.41;61.01;100528.97;4979093;28;45588;-85
2021/08/06 09:34:30;;;;;;;;;2.00;1.00;;;;;20.37;61.70;100532.84;4980735;28;45349;-85
2021/08/06 09:37:03;;;;;;;;;0.50;0.50;;;;;20.39;61.39;100527.38;4979168;28;45349;-85
2021/08/06 09:39:47;;;;;;;;;0.25;0.00;;;;;20.39;60.90;100533.56;4978898;28;46335;-85
2021/08/06 09:42:18;;;;;;;;;1.00;1.00;;;;;20.38;61.20;100528.34;4977502;28;45439;-85
2021/08/06 09:44:45;;;;;;;;;0.50;0.50;;;;;20.38;62.03;100536.34;4962837;28;45310;-84
2021/08/06 09:47:17;;;;;;;;;2.00;0.50;;;;;20.34;61.84;100528.59;4953995;28;45443;-84
2021/08/06 09:49:47;;;;;;;;;2.75;1.00;;;;;20.35;63.01;100534.75;4959910;28;45620;-84
2021/08/06 09:52:13;;;;;;;;;1.00;1.00;;;;;20.35;61.89;100534.75;4960034;28;45215;-84
2021/08/06 09:54:38;;;;;;;;;0.75;0.75;;;;;20.36;62.12;100533.81;4943142;28;45532;-84
2021/08/06 09:57:11;;;;;;;;;0.25;0.25;;;;;20.42;62.17;100535.97;4959007;28;45462;-84
2021/08/06 09:59:38;;;;;;;;;0.25;0.25;;;;;20.49;62.23;100522.16;4960379;28;47139;-84
2021/08/06 10:02:20;;;;;;;;;1.00;1.00;;;;;20.54;62.05;100520.84;4942055;28;45242;-84
2021/08/06 10:05:00;;;;;;;;;0.00;0.00;;;;;20.63;61.73;100531.75;4951263;28;45323;-85
2021/08/06 10:07:27;;;;;;;;;1.00;1.00;;;;;20.65;61.28;100519.97;4941095;28;45469;-85
2021/08/06 10:09:53;;;;;;;;;0.00;0.00;;;;;20.65;60.83;100522.63;4932760;28;47281;-84
2021/08/06 10:12:19;;;;;;;;;0.75;0.00;;;;;20.67;61.07;100533.19;4942977;28;45390;-85
2021/08/06 10:14:44;;;;;;;;;0.75;0.00;;;;;20.70;60.77;100524.94;4942787;28;45465;-85
2021/08/06 10:17:11;;;;;;;;;0.00;0.00;;;;;20.71;60.73;100525.78;4960285;28;45384;-84
2021/08/06 10:19:37;;;;;;;;;0.75;0.75;;;;;20.74;60.40;100531.72;4959882;28;46218;-84
2021/08/06 10:22:03;;;;;;;;;1.00;1.00;;;;;20.82;60.37;100531.13;4959628;28;45381;-84
2021/08/06 10:24:29;;;;;;;;;1.00;1.00;;;;;20.86;59.87;100534.41;4960128;28;45655;-85
2021/08/06 10:26:55;;;;;;;;;0.00;0.00;;;;;20.91;59.75;100535.72;4941217;28;47068;-84
2021/08/06 10:29:22;;;;;;;;;0.75;0.75;;;;;20.95;60.11;100527.44;4935959;28;48611;-84
2021/08/06 10:32:15;;;;;;;;;1.00;1.00;;;;;20.99;60.11;100534.28;4959517;28;45414;-85
2021/08/06 10:35:06;;;;;;;;;0.25;0.00;;;;;21.04;58.93;100539.25;4953109;28;45471;-85
2021/08/06 10:37:53;;;;;;;;;2.00;1.00;;;;;21.07;59.58;100544.34;4959746;28;45589;-85
2021/08/06 10:43:11;;;;;;;;;1.00;1.00;;;;;21.11;59.05;100540.47;4962322;28;45259;-84
2021/08/06 10:45:45;;;;;;;;;0.00;0.00;;;;;21.11;59.29;100543.97;4963042;28;45466;-85
2021/08/06 10:48:43;;;;;;;;;0.25;0.00;;;;;21.13;59.10;100539.38;4963223;28;45436;-85
2021/08/06 10:51:11;;;;;;;;;0.00;0.00;;;;;21.13;59.34;100546.53;4958028;28;46416;-85
2021/08/06 10:53:41;;;;;;;;;0.00;0.00;;;;;21.12;59.02;100534.13;4960703;28;45295;-85
2021/08/06 10:56:16;;;;;;;;;0.00;0.00;;;;;21.13;59.19;100544.72;4963388;28;46261;-85
2021/08/06 10:58:47;;;;;;;;;0.00;0.00;;;;;21.15;59.24;100539.22;4961629;28;45255;-85
2021/08/06 11:01:33;;;;;;;;;0.75;0.00;;;;;21.17;59.33;100534.59;4959710;28;48611;-85
2021/08/06 11:04:11;;;;;;;;;2.00;0.00;;;;;21.23;59.32;100533.25;4944619;28;45698;-85
2021/08/06 11:06:45;;;;;;;;;0.00;0.00;;;;;21.30;59.06;100531.78;4960552;28;45468;-85
2021/08/06 11:09:23;;;;;;;;;0.00;0.00;;;;;21.36;58.69;100531.25;4961186;28;45552;-87
2021/08/06 11:11:52;;;;;;;;;1.50;1.00;;;;;21.34;58.34;100527.03;4959026;28;45672;-87
2021/08/06 11:14:40;;;;;;;;;0.25;0.25;;;;;21.32;57.67;100539.66;4960980;28;45480;-87
2021/08/06 11:17:14;;;;;;;;;0.50;0.50;;;;;21.27;57.79;100539.19;4961385;28;45453;-86
2021/08/06 11:19:42;;;;;;;;;0.75;0.50;;;;;21.25;58.41;100536.66;4935319;28;46983;-86
2021/08/06 11:22:21;;;;;;;;;1.00;1.00;;;;;21.31;57.87;100536.13;4946720;28;47454;-86
2021/08/06 11:24:52;;;;;;;;;1.00;1.00;;;;;21.31;58.21;100538.81;4941847;28;45591;-86
2021/08/06 11:27:19;;;;;;;;;0.50;0.50;;;;;21.34;58.14;100543.91;4945367;28;45251;-85
2021/08/06 11:30:08;;;;;;;;;0.25;0.25;;;;;21.36;57.85;100547.31;4940441;28;46041;-87